Terminal Aerodrome Forecast
Issued by NWS

Home | Current Version | Previous Version | Text Only | Print | Product List | Glossary On
Versions: 1 2 3 4 5 6 7 8 9 10 11 12 13 14 15 16 17 18 19 20 21 22 23 24 25 26 27 28 29 30 31 32 33 34 35 36 37 38 39 40 41 42 43 44 45 46 47 48 49
000
FTUS42 KMFL 280539
TAFOPF
TAF
KOPF 280539Z 2806/2906 10005KT P6SM VCSH SCT030 BKN080 BKN250
      TEMPO 2806/2808 VRB10G15KT 5SM SHRA BKN030 BKN080
     FM281500 12007KT P6SM VCSH SCT035 SCT060
     FM281800 11011KT P6SM VCTS SCT030CB BKN060 BKN250=

USA.gov is the U.S. government's official web portal to all federal, state and local government web resources and services.